Decoded Metar for YCDU ( in ) (IATA:) | Meteo·Mobile Aviation Weather
aviador You're here:

YCDU Decoded Metar

in
Report Time2019-03-23 08:00:00
UTC Time2019-03-23 08:33:34
Flight Rules unknown UNKNOWN
Wind200° at 09 kt
W.Decomp.*RWY 17: 7.8 kt HW 4.5 kt RCW
RWY 11: 9.0 kt RCW
W.Rank200° ranks 10
Current wind is below 200° avg. (11.2)
VisibilityN/A
Phenomena:N/A
Clouds:N/A
Expected CloudBase > 1,200 ft AGL from Temp-Dew spread
CeilingNone
Temp20°C
Dew Point17°C (83% RH)
AAT19.1°C
QNH1013 hPa
Raw Report
METAR YCDU 230800Z AUTO 20009KT //// // NCD 20/17 Q1013=

Extra information for YCDU:More info

Social comments